Time;durP1;ratioP1;P1;durP2;ratioP2;P2;SDS_P1;SDS_P2;PMS_P1;PMS_P2;Temp;Humidity;BMP_temperature;BMP_pressure;BME280_temperature;BME280_humidity;BME280_pressure;Samples;Min_cycle;Max_cycle;Signal;HPM_P1;HPM_P2
2023/10/26 00:00:34;;;;;;;0.35;0.35;;;9.30;99.90;;;;;;5096425;28;20056;-81
2023/10/26 00:03:00;;;;;;;0.65;0.65;;;9.30;99.90;;;;;;5112958;28;20052;-81
2023/10/26 00:05:25;;;;;;;0.85;0.82;;;9.40;99.90;;;;;;5113615;28;20067;-80
2023/10/26 00:07:52;;;;;;;0.70;0.70;;;9.30;99.90;;;;;;5129691;27;20048;-81
2023/10/26 00:10:18;;;;;;;0.40;0.40;;;9.30;99.90;;;;;;5079039;28;20044;-81
2023/10/26 00:12:44;;;;;;;;;;;9.30;99.90;;;;;;5130866;27;20048;-81
2023/10/26 00:15:10;;;;;;;0.40;0.40;;;9.30;99.90;;;;;;5096430;28;19924;-81
2023/10/26 00:17:37;;;;;;;0.70;0.70;;;9.30;99.90;;;;;;5130318;27;20051;-81
2023/10/26 00:20:08;;;;;;;0.30;0.30;;;9.30;99.90;;;;;;5078872;28;20044;-81
2023/10/26 00:22:34;;;;;;;0.50;0.50;;;9.30;99.90;;;;;;5096160;28;20048;-81
2023/10/26 00:24:59;;;;;;;0.30;0.30;;;9.30;99.90;;;;;;5079641;28;20040;-81
2023/10/26 00:27:25;;;;;;;0.40;0.40;;;9.30;99.90;;;;;;5132467;27;20052;-82
2023/10/26 00:29:51;;;;;;;0.40;0.40;;;9.30;99.90;;;;;;5136360;28;20043;-82
2023/10/26 00:32:17;;;;;;;0.40;0.40;;;9.30;99.90;;;;;;5136463;28;20028;-82
2023/10/26 00:34:43;;;;;;;;;;;9.30;99.90;;;;;;5129026;28;20051;-80
2023/10/26 00:37:09;;;;;;;0.60;0.60;;;9.30;99.90;;;;;;5078952;28;19920;-81
2023/10/26 00:39:35;;;;;;;0.80;0.80;;;9.30;99.90;;;;;;5131342;27;20054;-81
2023/10/26 00:42:01;;;;;;;;;;;9.30;99.90;;;;;;5113698;28;20417;-81
2023/10/26 00:44:26;;;;;;;0.50;0.50;;;9.30;99.90;;;;;;5078844;28;19920;-81
2023/10/26 00:46:54;;;;;;;0.40;0.40;;;9.30;99.90;;;;;;5095973;28;20052;-81
2023/10/26 00:49:20;;;;;;;0.50;0.50;;;9.20;99.90;;;;;;5129076;27;20044;-81
2023/10/26 00:51:57;;;;;;;1.00;1.00;;;9.20;99.90;;;;;;5129340;27;20473;-81
2023/10/26 00:54:25;;;;;;;0.40;0.40;;;9.30;99.90;;;;;;5095382;28;20062;-82
2023/10/26 00:56:51;;;;;;;0.60;0.60;;;9.30;99.90;;;;;;5095267;28;20060;-82
2023/10/26 00:59:17;;;;;;;0.50;0.50;;;9.40;99.90;;;;;;5095830;28;20101;-82
2023/10/26 01:01:47;;;;;;;;;;;9.40;99.90;;;;;;5112949;28;20044;-81
2023/10/26 01:04:16;;;;;;;0.40;0.40;;;9.40;99.90;;;;;;5094672;28;19994;-81
2023/10/26 01:06:42;;;;;;;0.40;0.40;;;9.40;99.90;;;;;;5129220;27;20490;-81
2023/10/26 01:09:08;;;;;;;0.30;0.30;;;9.40;99.90;;;;;;5129855;27;20047;-81
2023/10/26 01:11:35;;;;;;;;;;;9.40;99.90;;;;;;5112739;28;20178;-81
2023/10/26 01:14:00;;;;;;;0.60;0.60;;;9.40;99.90;;;;;;5095271;28;19920;-81
2023/10/26 01:16:26;;;;;;;0.40;0.40;;;9.40;99.90;;;;;;5129317;27;20064;-80
2023/10/26 01:18:52;;;;;;;;;;;9.30;99.90;;;;;;5095146;28;20459;-80
2023/10/26 01:21:18;;;;;;;0.75;0.75;;;9.30;99.90;;;;;;5094225;28;19923;-80
2023/10/26 01:23:44;;;;;;;0.32;0.32;;;9.30;99.90;;;;;;5111852;28;20048;-81
2023/10/26 01:26:09;;;;;;;0.30;0.30;;;9.30;99.90;;;;;;5094689;28;20437;-81
2023/10/26 01:28:35;;;;;;;0.60;0.60;;;9.30;99.90;;;;;;5128457;27;20051;-81
2023/10/26 01:31:00;;;;;;;1.08;1.00;;;9.30;99.90;;;;;;5112883;28;20055;-82
2023/10/26 01:33:26;;;;;;;0.50;0.50;;;9.30;99.90;;;;;;5078426;28;20048;-81
2023/10/26 01:35:58;;;;;;;0.50;0.50;;;9.30;99.90;;;;;;5129055;27;20096;-81
2023/10/26 01:38:24;;;;;;;0.50;0.50;;;9.30;99.90;;;;;;5111404;28;20499;-81
2023/10/26 01:40:51;;;;;;;0.50;0.50;;;9.30;99.90;;;;;;5077745;28;20036;-82
2023/10/26 01:43:17;;;;;;;1.05;0.85;;;9.40;99.90;;;;;;5128236;27;20051;-81
2023/10/26 01:45:43;;;;;;;0.30;0.30;;;9.40;99.90;;;;;;5129325;27;20047;-81
2023/10/26 01:48:09;;;;;;;0.35;0.35;;;9.40;99.90;;;;;;5128493;27;20044;-80
2023/10/26 01:50:35;;;;;;;;;;;9.40;99.90;;;;;;5111077;28;20106;-81
2023/10/26 01:53:00;;;;;;;0.50;0.50;;;9.40;99.90;;;;;;5111342;28;20354;-81
2023/10/26 01:55:26;;;;;;;0.55;0.55;;;9.40;99.90;;;;;;5127903;27;20064;-81
2023/10/26 01:57:52;;;;;;;0.60;0.60;;;9.30;99.90;;;;;;5111549;28;20104;-82
2023/10/26 02:00:18;;;;;;;;;;;9.40;99.90;;;;;;5128810;27;20052;-81
2023/10/26 02:02:46;;;;;;;0.30;0.30;;;9.40;99.90;;;;;;5128888;27;19927;-81
2023/10/26 02:05:12;;;;;;;0.70;0.70;;;9.40;99.90;;;;;;5093846;28;20051;-81
2023/10/26 02:07:37;;;;;;;0.75;0.75;;;9.40;99.90;;;;;;5128818;27;20479;-80
2023/10/26 02:10:03;;;;;;;0.63;0.63;;;9.40;99.90;;;;;;5094294;28;20047;-81
2023/10/26 02:12:29;;;;;;;1.23;1.23;;;9.40;99.90;;;;;;5144062;27;20031;-81
2023/10/26 02:14:55;;;;;;;0.95;0.95;;;9.40;99.90;;;;;;5151778;27;20042;-82
2023/10/26 02:17:20;;;;;;;0.52;0.52;;;9.40;99.90;;;;;;5144090;27;20040;-81
2023/10/26 02:19:46;;;;;;;0.50;0.50;;;9.40;99.90;;;;;;5078303;28;20054;-81
2023/10/26 02:22:13;;;;;;;0.95;0.90;;;9.30;99.90;;;;;;5077548;28;20056;-81
2023/10/26 02:24:41;;;;;;;0.50;0.50;;;9.30;99.90;;;;;;5128460;27;20060;-82
2023/10/26 02:27:07;;;;;;;0.90;0.70;;;9.30;99.90;;;;;;5127691;27;20094;-81
2023/10/26 02:29:33;;;;;;;0.50;0.50;;;9.30;99.90;;;;;;5127813;27;20191;-81
2023/10/26 02:31:59;;;;;;;1.50;1.20;;;9.30;99.90;;;;;;5128159;27;20040;-81
2023/10/26 02:34:24;;;;;;;2.42;2.20;;;9.30;99.90;;;;;;5127305;27;20406;-81
2023/10/26 02:36:50;;;;;;;1.48;1.38;;;9.30;99.90;;;;;;5127904;28;20048;-81
2023/10/26 02:39:16;;;;;;;0.50;0.50;;;9.30;99.90;;;;;;5127511;28;20052;-81
2023/10/26 02:41:42;;;;;;;0.60;0.60;;;9.30;99.90;;;;;;5128122;28;20051;-81
2023/10/26 02:44:07;;;;;;;1.15;1.13;;;9.30;99.90;;;;;;5127772;28;20446;-82
2023/10/26 02:46:33;;;;;;;1.30;1.20;;;9.30;99.90;;;;;;5110483;28;20044;-81
2023/10/26 02:48:58;;;;;;;1.00;0.93;;;9.20;99.90;;;;;;5076926;28;20059;-81
2023/10/26 02:51:24;;;;;;;0.55;0.55;;;9.30;99.90;;;;;;5076835;28;20044;-81
2023/10/26 02:53:50;;;;;;;1.23;1.17;;;9.20;99.90;;;;;;5127557;28;20047;-81
2023/10/26 02:56:15;;;;;;;0.70;0.70;;;9.30;99.90;;;;;;5078687;28;20113;-80
2023/10/26 02:58:41;;;;;;;0.60;0.60;;;9.20;99.90;;;;;;5072972;28;20056;-81
2023/10/26 03:01:07;;;;;;;5.28;3.03;;;9.20;99.90;;;;;;5056588;28;20420;-82
2023/10/26 03:03:33;;;;;;;0.98;0.82;;;9.20;99.90;;;;;;5073831;28;20053;-81
2023/10/26 03:05:59;;;;;;;0.40;0.40;;;9.20;99.90;;;;;;5073069;28;20044;-81
2023/10/26 03:08:25;;;;;;;0.38;0.38;;;9.20;99.90;;;;;;5072912;28;20092;-81
2023/10/26 03:10:50;;;;;;;1.63;1.52;;;9.20;99.90;;;;;;5073220;28;20086;-82
2023/10/26 03:13:16;;;;;;;0.40;0.40;;;9.20;99.90;;;;;;5072679;28;20046;-81
2023/10/26 03:15:42;;;;;;;1.20;1.20;;;9.10;99.90;;;;;;5073951;28;20171;-81
2023/10/26 03:18:08;;;;;;;0.40;0.40;;;9.20;99.90;;;;;;5056165;28;20051;-83
2023/10/26 03:20:33;;;;;;;0.80;0.80;;;9.20;99.90;;;;;;5073342;28;20052;-82
2023/10/26 03:22:59;;;;;;;1.63;0.88;;;9.20;99.90;;;;;;5056905;28;20049;-81
2023/10/26 03:25:25;;;;;;;2.15;1.55;;;9.10;99.90;;;;;;5072816;28;20051;-81
2023/10/26 03:27:51;;;;;;;2.30;1.65;;;9.20;99.90;;;;;;5056181;28;20102;-81
2023/10/26 03:30:17;;;;;;;0.50;0.50;;;9.10;99.90;;;;;;5056167;28;20045;-82
2023/10/26 03:32:44;;;;;;;3.50;0.77;;;9.10;99.90;;;;;;5056310;28;20048;-81
2023/10/26 03:35:10;;;;;;;0.63;0.63;;;9.10;99.90;;;;;;5056484;28;20368;-81
2023/10/26 03:37:39;;;;;;;;;;;9.00;99.90;;;;;;5056405;28;20106;-81
2023/10/26 03:40:06;;;;;;;0.40;0.40;;;9.00;99.90;;;;;;5072451;28;19970;-81
2023/10/26 03:42:32;;;;;;;0.88;0.88;;;9.00;99.90;;;;;;5072790;28;20455;-82
2023/10/26 03:44:58;;;;;;;0.40;0.40;;;9.00;99.90;;;;;;5076887;28;20048;-81
2023/10/26 03:47:23;;;;;;;1.35;1.08;;;9.00;99.90;;;;;;5076418;28;20399;-81
2023/10/26 03:49:52;;;;;;;0.82;0.82;;;9.00;99.90;;;;;;5076546;28;20384;-81
2023/10/26 03:52:21;;;;;;;0.90;0.90;;;8.90;99.90;;;;;;5077143;28;20060;-81
2023/10/26 03:54:47;;;;;;;0.43;0.43;;;8.90;99.90;;;;;;5079013;28;20135;-82
2023/10/26 03:57:15;;;;;;;2.05;1.13;;;8.90;99.90;;;;;;5099984;28;20055;-83
2023/10/26 03:59:41;;;;;;;0.50;0.50;;;8.90;99.90;;;;;;5141036;27;20055;-81
2023/10/26 04:02:07;;;;;;;0.82;0.55;;;8.90;99.90;;;;;;5110374;28;20039;-83
2023/10/26 04:04:33;;;;;;;1.30;1.23;;;8.90;99.90;;;;;;5157213;27;20087;-82
2023/10/26 04:06:59;;;;;;;1.10;1.00;;;8.90;99.90;;;;;;5117347;28;20078;-81
2023/10/26 04:09:25;;;;;;;1.70;1.60;;;8.90;99.90;;;;;;5084272;28;20036;-81
2023/10/26 04:11:51;;;;;;;1.55;1.45;;;8.80;99.90;;;;;;5099621;28;20082;-81
2023/10/26 04:14:18;;;;;;;0.70;0.70;;;8.80;99.90;;;;;;5099346;28;20463;-82
2023/10/26 04:16:47;;;;;;;0.73;0.73;;;8.80;99.90;;;;;;5133634;27;20048;-81
2023/10/26 04:19:16;;;;;;;1.08;1.08;;;8.80;99.90;;;;;;5099460;28;20079;-82
2023/10/26 04:21:42;;;;;;;0.40;0.40;;;8.80;99.90;;;;;;5099319;28;20044;-81
2023/10/26 04:24:08;;;;;;;1.85;1.70;;;8.70;99.90;;;;;;5099028;28;20405;-81
2023/10/26 04:26:33;;;;;;;1.17;0.65;;;8.80;99.90;;;;;;5099059;28;20086;-81
2023/10/26 04:28:59;;;;;;;0.68;0.68;;;8.80;99.90;;;;;;5098620;28;20555;-81
2023/10/26 04:31:25;;;;;;;1.23;0.98;;;8.70;99.90;;;;;;5081848;28;20135;-81
2023/10/26 04:33:51;;;;;;;0.43;0.43;;;8.80;99.90;;;;;;5133401;27;20051;-81
2023/10/26 04:36:21;;;;;;;0.90;0.90;;;8.70;99.90;;;;;;5099612;28;20056;-82
2023/10/26 04:38:47;;;;;;;2.08;0.90;;;8.70;99.90;;;;;;5116743;28;20050;-81
2023/10/26 04:41:12;;;;;;;0.85;0.50;;;8.70;99.90;;;;;;5133478;27;20044;-82
2023/10/26 04:43:38;;;;;;;0.52;0.52;;;8.70;99.90;;;;;;5116545;28;20051;-81
2023/10/26 04:46:04;;;;;;;0.30;0.30;;;8.70;99.90;;;;;;5115998;28;20052;-82
2023/10/26 04:48:30;;;;;;;0.43;0.43;;;8.70;99.90;;;;;;5098773;28;20474;-81
2023/10/26 04:50:56;;;;;;;0.47;0.47;;;8.70;99.90;;;;;;5099010;28;20048;-81
2023/10/26 04:53:21;;;;;;;0.38;0.38;;;8.70;99.90;;;;;;5081510;28;20465;-81
2023/10/26 04:55:47;;;;;;;0.40;0.40;;;8.60;99.90;;;;;;5080883;28;20160;-81
2023/10/26 04:58:13;;;;;;;0.50;0.50;;;8.60;99.90;;;;;;5132533;27;20058;-81
2023/10/26 05:00:39;;;;;;;;;;;8.60;99.90;;;;;;5100014;28;20067;-82
2023/10/26 05:03:05;;;;;;;0.50;0.50;;;8.50;99.90;;;;;;5098366;28;19919;-81
2023/10/26 05:05:30;;;;;;;2.90;1.20;;;8.40;99.90;;;;;;5132560;27;20092;-80
2023/10/26 05:07:56;;;;;;;0.43;0.43;;;8.40;99.90;;;;;;5116162;28;20047;-81
2023/10/26 05:10:22;;;;;;;0.40;0.40;;;8.30;99.90;;;;;;5098611;28;20083;-81
2023/10/26 05:12:48;;;;;;;0.60;0.60;;;8.30;99.90;;;;;;5099050;28;20048;-82
2023/10/26 05:15:13;;;;;;;0.50;0.50;;;8.30;99.90;;;;;;5132008;27;20434;-82
2023/10/26 05:17:39;;;;;;;0.90;0.63;;;8.80;99.90;;;;;;5081550;28;20118;-83
2023/10/26 05:20:07;;;;;;;0.60;0.60;;;8.30;99.90;;;;;;5132107;27;20047;-83
2023/10/26 05:22:32;;;;;;;0.35;0.35;;;8.40;99.90;;;;;;5097555;28;20086;-83
2023/10/26 05:25:00;;;;;;;0.40;0.40;;;8.40;99.90;;;;;;5098970;28;20040;-83
2023/10/26 05:27:26;;;;;;;0.50;0.50;;;8.40;99.90;;;;;;5098341;28;20152;-82
2023/10/26 05:29:52;;;;;;;0.50;0.50;;;8.40;99.90;;;;;;5098775;28;20081;-83
2023/10/26 05:32:18;;;;;;;0.30;0.30;;;8.40;99.90;;;;;;5114989;28;20050;-82
2023/10/26 05:34:44;;;;;;;0.93;0.90;;;8.40;99.90;;;;;;5098423;28;20043;-82
2023/10/26 05:37:10;;;;;;;0.57;0.57;;;8.40;99.90;;;;;;5098480;28;20100;-82
2023/10/26 05:39:35;;;;;;;1.02;1.02;;;8.50;99.90;;;;;;5098047;28;20083;-82
2023/10/26 05:42:04;;;;;;;2.30;2.10;;;8.50;99.90;;;;;;5133176;27;20050;-82
2023/10/26 05:44:30;;;;;;;0.57;0.57;;;8.60;99.90;;;;;;5102915;28;20466;-83
2023/10/26 05:46:56;;;;;;;0.88;0.88;;;8.60;99.90;;;;;;5121351;28;20068;-84
2023/10/26 05:49:22;;;;;;;0.40;0.40;;;8.50;99.90;;;;;;5155084;27;20027;-83
2023/10/26 05:51:47;;;;;;;0.90;0.90;;;8.60;99.90;;;;;;5138010;27;20047;-82
2023/10/26 05:54:13;;;;;;;1.70;1.65;;;8.50;99.90;;;;;;5132757;27;20047;-82
2023/10/26 05:56:39;;;;;;;1.50;1.40;;;8.40;99.90;;;;;;5132076;27;20052;-82
2023/10/26 05:59:05;;;;;;;0.95;0.95;;;8.40;99.90;;;;;;5097370;28;20047;-84
2023/10/26 06:01:30;;;;;;;0.75;0.75;;;8.30;99.90;;;;;;5079820;28;20514;-82
2023/10/26 06:03:56;;;;;;;2.25;2.15;;;8.30;99.90;;;;;;5097392;28;20091;-82
2023/10/26 06:06:22;;;;;;;0.90;0.88;;;8.30;99.90;;;;;;5113727;28;20092;-82
2023/10/26 06:08:47;;;;;;;0.80;0.80;;;8.20;99.90;;;;;;5131847;27;20051;-82
2023/10/26 06:11:13;;;;;;;1.48;1.38;;;8.10;99.90;;;;;;5130088;27;20129;-83
2023/10/26 06:13:39;;;;;;;0.50;0.50;;;8.00;99.90;;;;;;5130083;27;20075;-83
2023/10/26 06:16:05;;;;;;;0.57;0.57;;;7.90;99.90;;;;;;5078909;28;20066;-82
2023/10/26 06:18:32;;;;;;;;;;;7.80;99.90;;;;;;5079730;28;20150;-82
2023/10/26 06:20:59;;;;;;;;;;;7.70;99.90;;;;;;5096328;28;19920;-83
2023/10/26 06:23:24;;;;;;;0.60;0.60;;;7.70;99.90;;;;;;5095249;28;19971;-81
2023/10/26 06:25:57;;;;;;;0.50;0.50;;;7.70;99.90;;;;;;5129971;27;20051;-83
2023/10/26 06:28:22;;;;;;;1.00;1.00;;;7.60;99.90;;;;;;5080044;28;20048;-82
2023/10/26 06:30:48;;;;;;;0.52;0.52;;;7.60;99.90;;;;;;5095957;28;20486;-82
2023/10/26 06:33:14;;;;;;;0.82;0.82;;;7.60;99.90;;;;;;5096423;28;20042;-82
2023/10/26 06:35:39;;;;;;;0.50;0.50;;;7.60;99.90;;;;;;5096135;28;20050;-82
2023/10/26 06:38:05;;;;;;;0.80;0.80;;;7.60;99.90;;;;;;5080824;28;20521;-82
2023/10/26 06:40:31;;;;;;;0.68;0.68;;;7.70;99.90;;;;;;5097726;28;20072;-82
2023/10/26 06:42:56;;;;;;;0.50;0.50;;;7.70;99.90;;;;;;5080375;28;20048;-82
2023/10/26 06:45:22;;;;;;;0.60;0.60;;;7.80;99.90;;;;;;5096141;28;20040;-82
2023/10/26 06:47:48;;;;;;;0.55;0.55;;;7.90;99.90;;;;;;5095874;28;20047;-82
2023/10/26 06:50:13;;;;;;;0.93;0.93;;;7.90;99.90;;;;;;5097160;28;20048;-83
2023/10/26 06:52:39;;;;;;;0.50;0.50;;;8.00;99.90;;;;;;5095799;28;20387;-82
2023/10/26 06:55:05;;;;;;;0.65;0.65;;;8.10;99.90;;;;;;5078967;28;20059;-82
2023/10/26 06:57:34;;;;;;;;;;;8.20;99.90;;;;;;5097094;28;20062;-83
2023/10/26 07:00:01;;;;;;;1.40;1.30;;;8.30;99.90;;;;;;5097611;28;19920;-82
2023/10/26 07:02:26;;;;;;;0.57;0.57;;;8.30;99.90;;;;;;5096755;28;20052;-84
2023/10/26 07:04:52;;;;;;;0.50;0.50;;;8.30;99.90;;;;;;5079191;28;20440;-82
2023/10/26 07:07:18;;;;;;;0.40;0.40;;;8.40;99.90;;;;;;5096578;28;20050;-83
2023/10/26 07:09:43;;;;;;;0.50;0.50;;;8.50;99.90;;;;;;5096132;28;20044;-83
2023/10/26 07:12:09;;;;;;;0.70;0.70;;;8.50;99.90;;;;;;5130405;28;20432;-83
2023/10/26 07:14:36;;;;;;;0.35;0.35;;;8.50;99.90;;;;;;5080048;28;20130;-82
2023/10/26 07:17:02;;;;;;;0.50;0.50;;;8.50;99.90;;;;;;5096183;28;20047;-82
2023/10/26 07:19:28;;;;;;;0.50;0.50;;;8.60;99.90;;;;;;5116501;28;20474;-82
2023/10/26 07:21:54;;;;;;;0.45;0.45;;;8.60;99.90;;;;;;5100128;28;20082;-82
2023/10/26 07:24:19;;;;;;;1.92;1.83;;;8.70;99.90;;;;;;5082768;28;20065;-82
2023/10/26 07:26:46;;;;;;;0.30;0.30;;;8.60;99.90;;;;;;5101544;28;20158;-82
2023/10/26 07:29:12;;;;;;;0.40;0.40;;;8.60;99.90;;;;;;5102955;28;20514;-83
2023/10/26 07:31:38;;;;;;;0.50;0.50;;;8.60;99.90;;;;;;5144024;27;20035;-84
2023/10/26 07:34:05;;;;;;;0.60;0.60;;;8.70;99.90;;;;;;5156637;27;20133;-83
2023/10/26 07:36:31;;;;;;;0.40;0.40;;;8.70;99.90;;;;;;5122458;28;20091;-84
2023/10/26 07:38:58;;;;;;;0.40;0.40;;;8.70;99.90;;;;;;5085882;28;20078;-82
2023/10/26 07:41:25;;;;;;;0.40;0.40;;;8.70;99.90;;;;;;5101115;28;20371;-81
2023/10/26 07:43:51;;;;;;;0.40;0.40;;;8.80;99.90;;;;;;5100892;28;20090;-82
2023/10/26 07:46:17;;;;;;;0.40;0.40;;;8.80;99.90;;;;;;5083243;28;20075;-82
2023/10/26 07:48:43;;;;;;;0.45;0.45;;;8.90;99.90;;;;;;5082602;28;20051;-82
2023/10/26 07:51:08;;;;;;;0.40;0.40;;;8.80;99.90;;;;;;5099721;28;20050;-82
2023/10/26 07:53:35;;;;;;;0.40;0.40;;;;;;;;;;5082293;28;20044;-82
2023/10/26 07:56:00;;;;;;;0.38;0.38;;;9.00;99.90;;;;;;5098536;28;20098;-82
2023/10/26 07:58:29;;;;;;;0.45;0.45;;;9.00;99.90;;;;;;5099563;28;20043;-82
2023/10/26 08:00:55;;;;;;;0.38;0.38;;;9.10;99.90;;;;;;5134029;27;20062;-82
2023/10/26 08:03:25;;;;;;;0.30;0.30;;;9.10;99.90;;;;;;5099701;28;20087;-83
2023/10/26 08:06:00;;;;;;;1.30;1.20;;;9.10;99.90;;;;;;5099386;28;20523;-82
2023/10/26 08:08:27;;;;;;;0.75;0.75;;;9.10;99.90;;;;;;5099356;28;20047;-83
2023/10/26 08:10:53;;;;;;;0.60;0.60;;;9.10;99.90;;;;;;5099379;28;20100;-83
2023/10/26 08:13:18;;;;;;;0.32;0.32;;;9.10;99.90;;;;;;5099379;28;20039;-83
2023/10/26 08:15:44;;;;;;;0.50;0.50;;;9.00;99.90;;;;;;5082581;28;20162;-83
2023/10/26 08:18:12;;;;;;;0.40;0.40;;;9.00;99.90;;;;;;5099263;28;20039;-82
2023/10/26 08:20:38;;;;;;;0.45;0.45;;;9.20;99.90;;;;;;5099816;28;20054;-82
2023/10/26 08:23:04;;;;;;;0.28;0.28;;;9.00;99.90;;;;;;5134628;27;20054;-82
2023/10/26 08:25:33;;;;;;;0.40;0.40;;;9.10;99.90;;;;;;5099452;28;20063;-83
2023/10/26 08:27:59;;;;;;;1.05;0.40;;;9.10;99.90;;;;;;5084896;28;20046;-82
2023/10/26 08:30:25;;;;;;;0.45;0.45;;;9.20;99.90;;;;;;5082286;28;20134;-82
2023/10/26 08:32:53;;;;;;;;;;;9.20;99.90;;;;;;5099148;28;20071;-82
2023/10/26 08:35:19;;;;;;;0.30;0.30;;;9.40;99.90;;;;;;5082069;28;19999;-82
2023/10/26 08:37:45;;;;;;;0.43;0.43;;;9.40;99.90;;;;;;5133096;27;20425;-82
2023/10/26 08:40:12;;;;;;;;;;;9.50;99.90;;;;;;5116168;28;20402;-81
2023/10/26 08:42:43;;;;;;;0.30;0.30;;;9.60;99.90;;;;;;5099702;28;19920;-81
2023/10/26 08:45:12;;;;;;;0.40;0.40;;;;;;;;;;5099080;28;20070;-81
2023/10/26 08:47:41;;;;;;;0.35;0.35;;;9.60;99.90;;;;;;5098440;28;20401;-81
2023/10/26 08:50:09;;;;;;;0.95;0.77;;;9.70;99.90;;;;;;5098439;28;20085;-82
2023/10/26 08:52:36;;;;;;;0.40;0.40;;;9.70;99.90;;;;;;5099139;28;20142;-83
2023/10/26 08:55:02;;;;;;;0.40;0.40;;;9.60;99.90;;;;;;5098110;28;20119;-83
2023/10/26 08:57:44;;;;;;;0.65;0.65;;;9.60;99.90;;;;;;5118426;28;20090;-82
2023/10/26 09:00:13;;;;;;;1.30;1.25;;;9.60;99.90;;;;;;5101019;28;20044;-80
2023/10/26 09:02:38;;;;;;;0.30;0.30;;;9.70;99.90;;;;;;5101316;28;20040;-82
2023/10/26 09:05:06;;;;;;;0.75;0.75;;;9.70;99.90;;;;;;5140017;27;20047;-82
2023/10/26 09:07:31;;;;;;;0.50;0.50;;;9.60;99.90;;;;;;5099275;28;20047;-82
2023/10/26 09:09:57;;;;;;;2.28;0.40;;;9.60;99.90;;;;;;5099146;28;20046;-81
2023/10/26 09:12:23;;;;;;;0.43;0.43;;;9.60;99.90;;;;;;5099694;28;20055;-81
2023/10/26 09:15:06;;;;;;;0.50;0.50;;;9.60;99.90;;;;;;5122166;28;20353;-82
2023/10/26 09:17:33;;;;;;;0.25;0.25;;;9.50;99.90;;;;;;5110230;28;20028;-82
2023/10/26 09:20:23;;;;;;;0.30;0.30;;;9.60;99.90;;;;;;5120560;28;20039;-82
2023/10/26 09:22:49;;;;;;;4.20;1.75;;;9.60;99.90;;;;;;5114896;28;20054;-82
2023/10/26 09:25:15;;;;;;;0.30;0.30;;;9.70;99.90;;;;;;5102784;28;20059;-82
2023/10/26 09:27:42;;;;;;;0.30;0.30;;;9.70;99.90;;;;;;5082542;28;20043;-82
2023/10/26 09:30:29;;;;;;;0.30;0.30;;;9.80;99.90;;;;;;5103458;28;20074;-82
2023/10/26 09:32:59;;;;;;;0.40;0.40;;;9.90;99.90;;;;;;5131234;27;20500;-82
2023/10/26 09:35:33;;;;;;;0.30;0.30;;;9.90;99.90;;;;;;5114288;28;20051;-81
2023/10/26 09:37:59;;;;;;;0.50;0.50;;;10.00;99.90;;;;;;5097538;28;20068;-80
2023/10/26 09:40:26;;;;;;;;;;;10.10;99.90;;;;;;5096797;28;20044;-81
2023/10/26 09:42:55;;;;;;;0.40;0.40;;;10.10;99.90;;;;;;5096372;28;19958;-82
2023/10/26 09:45:22;;;;;;;0.30;0.30;;;10.30;99.90;;;;;;5097040;28;20047;-82
2023/10/26 09:47:47;;;;;;;0.40;0.40;;;10.30;99.90;;;;;;5131006;27;20051;-83
2023/10/26 09:50:14;;;;;;;0.50;0.50;;;10.40;99.90;;;;;;5115908;28;20043;-82
2023/10/26 09:52:43;;;;;;;;;;;10.90;99.90;;;;;;5080966;28;20126;-81
2023/10/26 09:55:13;;;;;;;0.22;0.22;;;10.60;99.90;;;;;;5088761;28;19971;-82
2023/10/26 09:58:01;;;;;;;1.17;1.17;;;10.60;99.90;;;;;;5057551;28;20093;-82
2023/10/26 10:00:33;;;;;;;1.00;0.50;;;10.70;99.90;;;;;;5073355;28;20134;-82
2023/10/26 10:03:16;;;;;;;0.50;0.50;;;10.80;99.90;;;;;;5074104;28;20048;-83
2023/10/26 10:05:45;;;;;;;0.50;0.50;;;10.90;99.90;;;;;;5040767;28;20387;-82
2023/10/26 10:08:12;;;;;;;1.15;1.05;;;10.90;99.90;;;;;;5073892;28;20050;-82
2023/10/26 10:11:15;;;;;;;0.40;0.40;;;10.90;99.90;;;;;;5056300;28;20048;-82
2023/10/26 10:13:40;;;;;;;0.20;0.20;;;11.00;99.90;;;;;;5073228;28;20116;-82
2023/10/26 10:16:35;;;;;;;0.32;0.32;;;11.00;99.90;;;;;;5056811;28;20157;-82
2023/10/26 10:19:20;;;;;;;0.70;0.70;;;11.10;99.90;;;;;;5072599;28;20080;-83
2023/10/26 10:21:51;;;;;;;1.35;0.50;;;11.10;99.90;;;;;;5072673;28;20128;-82
2023/10/26 10:24:49;;;;;;;0.82;0.82;;;11.20;99.90;;;;;;5056308;28;20051;-82
2023/10/26 10:27:18;;;;;;;0.52;0.52;;;11.30;99.90;;;;;;5023008;28;20055;-82
2023/10/26 10:29:45;;;;;;;0.30;0.30;;;11.30;99.90;;;;;;5073101;28;20067;-82
2023/10/26 10:32:11;;;;;;;0.77;0.77;;;11.30;99.90;;;;;;5072550;28;20467;-81
2023/10/26 10:34:44;;;;;;;0.45;0.45;;;11.40;99.90;;;;;;5072341;28;20177;-81
2023/10/26 10:37:17;;;;;;;0.43;0.43;;;11.40;99.90;;;;;;5072555;28;20036;-82
2023/10/26 10:40:20;;;;;;;2.30;1.25;;;11.50;99.90;;;;;;5073669;28;20120;-83
2023/10/26 10:42:50;;;;;;;0.43;0.43;;;11.60;99.90;;;;;;5015288;28;20053;-81
2023/10/26 10:45:17;;;;;;;0.40;0.40;;;11.50;99.90;;;;;;5047183;28;20052;-82
2023/10/26 10:47:45;;;;;;;0.50;0.50;;;11.40;99.90;;;;;;5073298;28;20094;-82
2023/10/26 10:50:22;;;;;;;0.88;0.88;;;11.40;99.90;;;;;;5057341;28;20127;-83
2023/10/26 10:52:48;;;;;;;;;;;11.40;99.90;;;;;;5076159;28;20056;-82
2023/10/26 10:55:27;;;;;;;0.30;0.30;;;11.30;99.90;;;;;;5082342;28;19959;-82
2023/10/26 10:57:57;;;;;;;0.30;0.30;;;11.20;99.90;;;;;;5131804;27;20056;-81
2023/10/26 11:00:24;;;;;;;0.60;0.60;;;11.10;99.90;;;;;;5098882;28;20100;-82
2023/10/26 11:02:52;;;;;;;1.08;0.95;;;11.20;99.90;;;;;;5134820;27;20040;-83
2023/10/26 11:05:18;;;;;;;5.13;1.25;;;11.20;99.90;;;;;;5151080;27;20073;-82
2023/10/26 11:07:44;;;;;;;0.50;0.50;;;11.20;99.90;;;;;;5120129;28;20035;-81
2023/10/26 11:10:10;;;;;;;0.40;0.40;;;11.10;99.90;;;;;;5084773;28;20171;-82
2023/10/26 11:12:36;;;;;;;0.28;0.28;;;11.00;99.90;;;;;;5081711;28;20055;-82
2023/10/26 11:15:03;;;;;;;1.25;1.25;;;10.90;99.90;;;;;;5131651;27;20039;-81
2023/10/26 11:17:31;;;;;;;1.55;0.95;;;10.90;99.90;;;;;;5131330;27;20056;-83
2023/10/26 11:19:56;;;;;;;0.57;0.57;;;10.90;99.90;;;;;;5080356;28;20066;-82
2023/10/26 11:22:23;;;;;;;0.70;0.70;;;11.00;99.90;;;;;;5131541;27;20055;-81
2023/10/26 11:24:49;;;;;;;;;;;11.00;99.90;;;;;;5080630;28;20044;-82
2023/10/26 11:27:17;;;;;;;0.32;0.32;;;11.00;99.90;;;;;;5131268;27;19996;-82
2023/10/26 11:29:44;;;;;;;5.25;1.13;;;11.10;99.90;;;;;;5112937;28;20483;-82
2023/10/26 11:32:18;;;;;;;0.30;0.30;;;11.20;99.90;;;;;;5062953;28;20079;-82
2023/10/26 11:35:06;;;;;;;0.85;0.85;;;11.20;99.90;;;;;;5130265;27;20044;-82
2023/10/26 11:37:37;;;;;;;0.75;0.75;;;11.20;99.90;;;;;;5130485;27;20047;-82
2023/10/26 11:40:08;;;;;;;0.40;0.40;;;11.20;99.90;;;;;;5129951;27;20048;-82
2023/10/26 11:42:46;;;;;;;0.57;0.57;;;11.20;99.90;;;;;;5130331;27;20044;-82
2023/10/26 11:45:15;;;;;;;0.50;0.50;;;11.30;99.90;;;;;;5096055;28;20043;-82
2023/10/26 11:47:51;;;;;;;0.60;0.60;;;11.20;99.90;;;;;;5129864;27;20040;-82
2023/10/26 11:50:36;;;;;;;1.23;0.40;;;11.20;99.90;;;;;;5095552;28;20378;-83
2023/10/26 11:53:03;;;;;;;0.30;0.30;;;11.20;99.90;;;;;;5130166;27;20127;-83
2023/10/26 11:55:34;;;;;;;0.22;0.22;;;11.20;99.90;;;;;;5129325;27;20107;-82
2023/10/26 11:58:01;;;;;;;0.63;0.63;;;11.10;99.90;;;;;;5112797;28;20485;-82
2023/10/26 12:00:28;;;;;;;0.20;0.20;;;11.10;99.90;;;;;;5096393;28;20087;-82
2023/10/26 12:02:55;;;;;;;0.30;0.30;;;11.10;99.90;;;;;;5130049;27;20354;-82
2023/10/26 12:05:22;;;;;;;0.65;0.65;;;11.20;99.90;;;;;;5129589;27;20431;-82
2023/10/26 12:07:49;;;;;;;0.60;0.60;;;11.20;99.90;;;;;;5096776;28;20580;-83
2023/10/26 12:10:17;;;;;;;0.82;0.82;;;11.20;99.90;;;;;;5078675;28;20052;-82
2023/10/26 12:12:44;;;;;;;0.30;0.30;;;11.00;99.90;;;;;;5129495;27;20048;-83
2023/10/26 12:15:10;;;;;;;0.40;0.40;;;11.30;99.90;;;;;;5112700;28;20059;-83
2023/10/26 12:17:36;;;;;;;;;;;11.30;99.90;;;;;;5079209;28;20059;-82
2023/10/26 12:20:03;;;;;;;0.65;0.60;;;11.30;99.90;;;;;;5096034;28;20019;-83
2023/10/26 12:22:29;;;;;;;0.85;0.85;;;11.30;99.90;;;;;;5094421;28;20050;-82
2023/10/26 12:24:55;;;;;;;1.25;1.15;;;11.40;99.90;;;;;;5129340;27;20051;-82
2023/10/26 12:27:22;;;;;;;0.73;0.73;;;11.50;99.90;;;;;;5096281;28;20143;-82
2023/10/26 12:29:48;;;;;;;0.30;0.30;;;11.60;99.90;;;;;;5129843;27;20555;-83
2023/10/26 12:32:15;;;;;;;0.32;0.32;;;11.70;99.90;;;;;;5112583;28;20120;-82
2023/10/26 12:34:41;;;;;;;5.38;2.67;;;11.70;99.90;;;;;;5129605;27;20047;-82
2023/10/26 12:37:07;;;;;;;0.68;0.65;;;11.80;99.90;;;;;;5129231;27;20056;-83
2023/10/26 12:39:33;;;;;;;2.17;1.63;;;11.80;99.90;;;;;;5078664;28;20047;-81
2023/10/26 12:42:00;;;;;;;0.85;0.85;;;11.90;99.90;;;;;;5129560;27;20075;-81
2023/10/26 12:44:26;;;;;;;2.38;1.05;;;12.00;99.90;;;;;;5095930;28;20039;-81
2023/10/26 12:46:53;;;;;;;0.77;0.77;;;12.10;99.90;;;;;;5130868;27;20085;-81
2023/10/26 12:49:23;;;;;;;0.68;0.68;;;12.50;99.90;;;;;;5145596;27;20050;-82
2023/10/26 12:51:49;;;;;;;0.40;0.40;;;12.20;99.90;;;;;;5074060;28;20054;-82
2023/10/26 12:54:15;;;;;;;4.20;1.33;;;12.30;99.90;;;;;;5151707;27;20123;-82
2023/10/26 12:56:41;;;;;;;1.83;0.50;;;12.20;99.90;;;;;;5133856;27;20585;-81
2023/10/26 12:59:07;;;;;;;0.35;0.35;;;12.20;99.90;;;;;;5113478;28;20181;-82
2023/10/26 13:01:33;;;;;;;0.30;0.30;;;12.20;99.90;;;;;;5095450;28;20044;-82